createdAt,value
2023-01-25T00:00:15.261Z,2.45
2023-01-25T00:05:18.090Z,2.30
2023-01-25T00:10:17.230Z,2.93
2023-01-25T00:15:16.749Z,2.18
2023-01-25T00:20:14.818Z,1.83
2023-01-25T00:25:13.680Z,1.93
2023-01-25T00:30:12.417Z,2.31
2023-01-25T00:35:15.029Z,1.88
2023-01-25T00:40:14.831Z,1.79
2023-01-25T00:45:15.478Z,1.53
2023-01-25T00:50:17.342Z,1.54
2023-01-25T00:55:17.519Z,1.53
2023-01-25T01:00:17.499Z,1.51
2023-01-25T01:05:18.079Z,1.47
2023-01-25T01:10:19.939Z,1.34
2023-01-25T01:15:22.247Z,1.62
2023-01-25T01:20:20.368Z,1.59
2023-01-25T01:25:20.703Z,1.78
2023-01-25T01:30:19.565Z,2.02
2023-01-25T01:35:20.686Z,2.15
2023-01-25T01:40:22.813Z,2.27
2023-01-25T01:45:43.181Z,2.14
2023-01-25T01:50:48.468Z,2.23
2023-01-25T01:55:48.477Z,2.26
2023-01-25T02:00:48.916Z,2.52
2023-01-25T02:05:58.413Z,2.03
2023-01-25T02:10:59.426Z,2.28
2023-01-25T02:15:59.360Z,2.14
2023-01-25T02:20:58.660Z,2.17
2023-01-25T02:26:00.663Z,1.65
2023-01-25T02:31:02.764Z,1.74
2023-01-25T02:36:30.712Z,1.43
2023-01-25T02:41:36.168Z,1.87
2023-01-25T02:46:37.585Z,1.79
2023-01-25T02:51:40.019Z,1.43
2023-01-25T02:56:41.477Z,1.73
2023-01-25T03:01:46.205Z,1.56
2023-01-25T03:06:46.305Z,1.79
2023-01-25T03:11:48.404Z,1.73
2023-01-25T03:16:49.128Z,2.09
2023-01-25T03:21:52.476Z,1.67
2023-01-25T03:27:12.240Z,1.58
2023-01-25T03:32:30.377Z,1.72
2023-01-25T03:37:36.728Z,1.73
2023-01-25T03:42:36.516Z,1.97
2023-01-25T03:47:35.062Z,2.56
2023-01-25T03:52:44.163Z,2.32
2023-01-25T03:57:49.201Z,2.37
2023-01-25T04:02:53.032Z,1.85
2023-01-25T04:07:55.318Z,1.80
2023-01-25T04:13:02.228Z,1.67
2023-01-25T04:18:00.972Z,1.91
2023-01-25T04:23:01.389Z,2.16
2023-01-25T04:28:12.047Z,2.31
2023-01-25T04:33:22.501Z,1.74
2023-01-25T04:38:23.409Z,1.93
2023-01-25T04:43:27.448Z,2.46
2023-01-25T04:48:30.957Z,2.48
2023-01-25T04:53:43.654Z,2.26
2023-01-25T04:58:44.150Z,1.77
2023-01-25T05:03:44.655Z,1.40
2023-01-25T05:08:53.207Z,1.34
2023-01-25T05:13:54.045Z,1.33
2023-01-25T05:19:01.424Z,1.73
2023-01-25T05:24:12.572Z,2.04
2023-01-25T05:29:11.902Z,2.40
2023-01-25T05:34:22.976Z,2.59
2023-01-25T05:39:24.605Z,2.98
2023-01-25T05:44:28.862Z,2.12
2023-01-25T05:49:27.837Z,1.73
2023-01-25T05:54:26.987Z,1.93
2023-01-25T05:59:32.691Z,1.93
2023-01-25T06:04:32.619Z,1.85
2023-01-25T06:09:31.290Z,2.18
2023-01-25T06:14:33.014Z,2.56
2023-01-25T06:19:33.003Z,2.84
2023-01-25T06:24:53.582Z,2.35
2023-01-25T06:29:52.243Z,2.43
2023-01-25T06:34:51.180Z,2.35
2023-01-25T06:52:44.027Z,2.00
2023-01-25T06:57:50.267Z,1.55
2023-01-25T07:02:51.099Z,1.58
2023-01-25T07:07:50.480Z,2.13
2023-01-25T07:12:52.913Z,2.05
2023-01-25T07:18:15.721Z,1.84
2023-01-25T07:23:15.468Z,2.40
2023-01-25T07:28:15.570Z,2.32
2023-01-25T07:33:16.513Z,2.29
2023-01-25T07:38:18.237Z,2.00
2023-01-25T07:43:17.521Z,1.89
2023-01-25T07:48:17.368Z,2.61
2023-01-25T07:53:17.504Z,2.61
2023-01-25T07:58:17.567Z,1.52
2023-01-25T08:03:16.085Z,1.72
2023-01-25T08:08:15.039Z,1.80
2023-01-25T08:13:20.265Z,2.52
2023-01-25T08:18:18.892Z,2.62
2023-01-25T08:23:22.831Z,2.24
2023-01-25T08:28:22.992Z,2.13
2023-01-25T08:33:23.587Z,2.08
2023-01-25T08:38:24.132Z,2.25
2023-01-25T08:43:22.591Z,2.25
2023-01-25T08:48:21.832Z,1.91
2023-01-25T08:53:20.629Z,2.28
2023-01-25T08:58:21.875Z,3.12
2023-01-25T09:03:20.627Z,2.82
2023-01-25T09:08:20.421Z,2.56
2023-01-25T09:13:19.583Z,2.29
2023-01-25T09:18:18.668Z,2.88
2023-01-25T09:23:17.057Z,2.44
2023-01-25T09:28:15.802Z,3.09
2023-01-25T09:33:14.972Z,3.37
2023-01-25T09:39:08.883Z,2.41
2023-01-25T09:44:24.044Z,3.34
2023-01-25T09:55:33.005Z,2.37
2023-01-25T10:00:36.707Z,2.83
2023-01-25T10:05:55.048Z,3.19
2023-01-25T10:11:10.924Z,2.26
2023-01-25T10:16:25.638Z,2.72
2023-01-25T10:21:30.756Z,3.28
2023-01-25T10:26:37.011Z,3.20
2023-01-25T10:31:46.728Z,3.69
2023-01-25T10:36:48.150Z,3.74
2023-01-25T10:41:52.107Z,3.34
2023-01-25T10:46:59.443Z,2.95
2023-01-25T10:52:13.223Z,3.57
2023-01-25T10:57:17.197Z,3.12
2023-01-25T11:02:38.041Z,2.76
2023-01-25T11:07:36.161Z,2.71
2023-01-25T11:12:38.849Z,2.91
2023-01-25T11:17:37.275Z,2.35
2023-01-25T11:22:36.450Z,2.59
2023-01-25T11:27:34.862Z,2.55
2023-01-25T11:32:36.297Z,2.69
2023-01-25T11:37:45.863Z,2.91
2023-01-25T11:43:12.887Z,2.88
2023-01-25T11:48:50.696Z,2.76
2023-01-25T11:54:17.495Z,2.95
2023-01-25T11:59:34.844Z,2.96
2023-01-25T12:05:21.998Z,2.58
2023-01-25T12:10:22.893Z,2.62
2023-01-25T12:15:44.941Z,3.02
2023-01-25T12:21:01.293Z,2.85
2023-01-25T12:26:10.081Z,2.91
2023-01-25T12:31:22.629Z,3.15
2023-01-25T12:36:41.381Z,3.03
2023-01-25T12:41:53.097Z,3.11
2023-01-25T12:47:15.597Z,3.21
2023-01-25T12:52:28.411Z,3.59
2023-01-25T12:57:51.997Z,2.83
2023-01-25T13:03:14.310Z,2.79
2023-01-25T13:08:30.991Z,2.50
2023-01-25T13:13:33.405Z,2.71
2023-01-25T13:18:32.648Z,3.34
2023-01-25T13:23:35.332Z,2.90
2023-01-25T13:28:43.469Z,3.42
2023-01-25T13:33:43.380Z,3.06
2023-01-25T13:38:41.598Z,2.78
2023-01-25T13:43:42.317Z,2.91
2023-01-25T13:48:54.196Z,3.57
2023-01-25T13:54:00.233Z,3.04
2023-01-25T13:58:59.345Z,3.26
2023-01-25T14:04:02.154Z,2.85
2023-01-25T14:09:08.068Z,3.03
2023-01-25T14:14:26.849Z,3.37
2023-01-25T14:20:02.433Z,2.74
2023-01-25T14:25:16.607Z,2.75
2023-01-25T14:30:26.954Z,2.42
2023-01-25T14:35:42.418Z,2.59
2023-01-25T14:40:52.528Z,2.58
2023-01-25T14:45:55.481Z,2.39
2023-01-25T14:52:00.293Z,2.70
2023-01-25T14:57:48.997Z,2.84
2023-01-25T15:02:59.456Z,2.98
2023-01-25T15:08:09.333Z,3.08
2023-01-25T15:13:14.803Z,2.69
2023-01-25T15:18:53.642Z,2.91
2023-01-25T15:23:59.020Z,2.95
2023-01-25T15:29:02.795Z,3.24
2023-01-25T15:34:02.922Z,3.32
2023-01-25T15:39:01.777Z,3.03
2023-01-25T15:44:01.521Z,2.59
2023-01-25T15:49:00.399Z,3.15
2023-01-25T15:53:59.293Z,3.43
2023-01-25T15:59:01.910Z,2.75
2023-01-25T16:04:00.149Z,2.86
2023-01-25T16:09:01.548Z,3.19
2023-01-25T16:14:05.519Z,3.22
2023-01-25T16:19:04.319Z,2.75
2023-01-25T16:24:05.338Z,2.85
2023-01-25T16:29:05.415Z,2.83
2023-01-25T16:34:06.400Z,2.88
2023-01-25T16:39:26.092Z,2.67
2023-01-25T16:44:26.102Z,2.51
2023-01-25T16:49:30.664Z,2.07
2023-01-25T16:54:30.414Z,2.68
2023-01-25T16:59:28.814Z,2.33
2023-01-25T17:04:29.938Z,3.11
2023-01-25T17:09:30.951Z,2.67
2023-01-25T17:14:28.797Z,2.78
2023-01-25T17:19:29.045Z,2.64
2023-01-25T17:24:32.352Z,2.16
2023-01-25T17:29:32.718Z,3.06
2023-01-25T17:34:33.957Z,2.68
2023-01-25T17:39:44.750Z,2.94
2023-01-25T17:44:45.756Z,2.39
2023-01-25T17:49:48.296Z,2.61
2023-01-25T17:54:47.448Z,2.41
2023-01-25T17:59:51.077Z,2.23
2023-01-25T18:04:48.718Z,2.19
2023-01-25T18:09:49.479Z,2.08
2023-01-25T18:14:50.258Z,2.05
2023-01-25T18:19:54.533Z,1.95
2023-01-25T18:25:02.042Z,2.08
2023-01-25T18:30:25.821Z,2.15
2023-01-25T18:35:26.310Z,2.30
2023-01-25T18:40:30.927Z,2.33
2023-01-25T18:45:30.323Z,2.23
2023-01-25T18:50:30.082Z,2.23
2023-01-25T18:55:31.942Z,2.30
2023-01-25T19:00:32.767Z,2.35
2023-01-25T19:05:37.029Z,2.39
2023-01-25T19:10:48.103Z,2.50
2023-01-25T19:15:48.704Z,2.18
2023-01-25T19:20:48.403Z,2.29
2023-01-25T19:25:56.665Z,2.20
2023-01-25T19:30:58.527Z,2.01
2023-01-25T19:36:01.409Z,2.02
2023-01-25T19:41:12.263Z,2.32
2023-01-25T19:46:46.455Z,2.35
2023-01-25T19:51:55.648Z,2.51
2023-01-25T19:57:00.676Z,2.30
2023-01-25T20:02:00.734Z,2.39
2023-01-25T20:07:05.180Z,1.87
2023-01-25T20:12:10.470Z,2.19
2023-01-25T20:17:09.161Z,2.68
2023-01-25T20:22:10.494Z,1.95
2023-01-25T20:27:11.909Z,1.81
2023-01-25T20:32:20.056Z,2.01
2023-01-25T20:37:48.554Z,1.60
2023-01-25T20:42:51.241Z,2.05
2023-01-25T20:47:50.162Z,2.59
2023-01-25T20:52:48.125Z,2.15
2023-01-25T20:57:53.502Z,1.55
2023-01-25T21:02:52.958Z,2.32
2023-01-25T21:07:51.783Z,2.40
2023-01-25T21:12:56.067Z,2.25
2023-01-25T21:17:55.376Z,1.96
2023-01-25T21:22:56.709Z,2.07
2023-01-25T21:27:57.427Z,2.26
2023-01-25T21:32:58.883Z,1.88
2023-01-25T21:37:57.032Z,1.93
2023-01-25T21:42:55.518Z,2.14
2023-01-25T21:48:00.214Z,2.65
2023-01-25T21:52:59.760Z,2.07
2023-01-25T21:57:58.635Z,1.79
2023-01-25T22:02:58.188Z,1.58
2023-01-25T22:08:01.721Z,1.72
2023-01-25T22:13:13.148Z,1.73
2023-01-25T22:18:15.379Z,1.49
2023-01-25T22:23:16.767Z,1.90
2023-01-25T22:28:16.693Z,1.53
2023-01-25T22:33:22.407Z,1.66
2023-01-25T22:38:23.521Z,2.11
2023-01-25T22:43:24.259Z,2.37
2023-01-25T22:48:25.617Z,2.30
2023-01-25T22:53:38.632Z,2.60
2023-01-25T22:58:42.658Z,2.50
2023-01-25T23:03:45.073Z,2.51
2023-01-25T23:08:44.104Z,1.73
2023-01-25T23:14:03.612Z,1.48
2023-01-25T23:19:04.265Z,1.17
2023-01-25T23:24:05.806Z,1.46
2023-01-25T23:29:09.945Z,1.56
2023-01-25T23:34:07.671Z,2.03
2023-01-25T23:39:12.539Z,2.25
2023-01-25T23:44:14.167Z,2.24
2023-01-25T23:49:20.544Z,2.16
2023-01-25T23:54:32.966Z,1.35
2023-01-25T23:59:34.777Z,1.21
